createdAt,value
2024-02-08T00:01:25.861Z,46.1
2024-02-08T00:02:27.802Z,46.2
2024-02-08T00:03:29.803Z,46.3
2024-02-08T00:04:31.949Z,46.2
2024-02-08T00:05:33.990Z,46.6
2024-02-08T00:06:35.887Z,46.8
2024-02-08T00:07:37.867Z,46.8
2024-02-08T00:08:39.798Z,46.9
2024-02-08T00:09:41.809Z,46.5
2024-02-08T00:10:43.846Z,47.1
2024-02-08T00:11:46.781Z,47.2
2024-02-08T00:12:48.820Z,47.3
2024-02-08T00:13:50.899Z,47.2
2024-02-08T00:14:53.794Z,47.1
2024-02-08T00:15:58.162Z,47.1
2024-02-08T00:16:57.912Z,47
2024-02-08T00:17:59.948Z,47
2024-02-08T00:19:01.835Z,47
2024-02-08T00:20:03.893Z,47
2024-02-08T00:21:06.799Z,47.1
2024-02-08T00:22:08.809Z,47.3
2024-02-08T00:23:10.921Z,47.1
2024-02-08T00:24:12.826Z,47
2024-02-08T00:25:14.810Z,46.8
2024-02-08T00:26:16.880Z,46.8
2024-02-08T00:27:18.806Z,46.9
2024-02-08T00:28:20.831Z,47.1
2024-02-08T00:29:22.825Z,47.2
2024-02-08T00:30:24.811Z,47.2
2024-02-08T00:31:26.881Z,47.2
2024-02-08T00:32:28.936Z,47
2024-02-08T00:33:30.996Z,46.9
2024-02-08T00:34:32.912Z,47.1
2024-02-08T00:35:34.861Z,47
2024-02-08T00:36:36.837Z,47
2024-02-08T00:37:38.911Z,46.8
2024-02-08T00:38:40.974Z,46.6
2024-02-08T00:39:42.807Z,46.2
2024-02-08T00:40:44.837Z,45.7
2024-02-08T00:41:46.797Z,45.6
2024-02-08T00:42:48.817Z,45.5
2024-02-08T00:43:50.880Z,45.3
2024-02-08T00:44:53.816Z,45.5
2024-02-08T00:45:55.851Z,45.6
2024-02-08T00:46:57.859Z,45.9
2024-02-08T00:47:59.877Z,46
2024-02-08T00:49:01.854Z,46.2
2024-02-08T00:50:03.848Z,46.2
2024-02-08T00:51:05.813Z,46.3
2024-02-08T00:52:08.814Z,46.4
2024-02-08T00:53:10.975Z,46.5
2024-02-08T00:54:12.858Z,46.5
2024-02-08T00:55:15.825Z,46.7
2024-02-08T00:56:17.861Z,47
2024-02-08T00:57:19.822Z,47.2
2024-02-08T00:59:25.844Z,47.2
2024-02-08T01:00:28.820Z,47
2024-02-08T01:01:31.017Z,47.1
2024-02-08T01:02:32.806Z,47.3
2024-02-08T01:03:34.870Z,47.3
2024-02-08T01:05:39.919Z,47.2
2024-02-08T01:06:42.194Z,47.2
2024-02-08T01:07:43.858Z,46.9
2024-02-08T01:08:45.832Z,46.7
2024-02-08T01:09:47.828Z,46.6
2024-02-08T01:10:50.843Z,46.5
2024-02-08T01:12:54.825Z,46.5
2024-02-08T01:13:56.888Z,46.3
2024-02-08T01:14:58.843Z,46.1
2024-02-08T01:16:00.849Z,46
2024-02-08T01:17:02.852Z,46.1
2024-02-08T01:18:04.873Z,45.7
2024-02-08T01:19:06.837Z,45.7
2024-02-08T01:20:09.065Z,45.5
2024-02-08T01:21:10.817Z,45.9
2024-02-08T01:22:13.807Z,46
2024-02-08T01:23:15.879Z,46
2024-02-08T01:24:17.838Z,46.5
2024-02-08T01:25:19.833Z,46.9
2024-02-08T01:26:21.835Z,47.2
2024-02-08T01:27:23.842Z,47.2
2024-02-08T01:28:25.919Z,47.2
2024-02-08T01:29:27.884Z,46.9
2024-02-08T01:30:29.819Z,47.6
2024-02-08T01:31:31.850Z,47.6
2024-02-08T01:32:33.866Z,47.7
2024-02-08T01:33:35.915Z,47.9
2024-02-08T01:34:38.877Z,47.9
2024-02-08T01:35:40.839Z,48
2024-02-08T01:36:42.873Z,48.1
2024-02-08T01:37:44.872Z,48.1
2024-02-08T01:38:46.836Z,48.2
2024-02-08T01:39:49.834Z,48
2024-02-08T01:40:51.871Z,48.1
2024-02-08T01:41:53.843Z,48.3
2024-02-08T01:42:55.848Z,48.1
2024-02-08T01:43:57.836Z,48.2
2024-02-08T01:44:59.867Z,48.2
2024-02-08T01:46:01.848Z,48.2
2024-02-08T01:47:03.891Z,48.3
2024-02-08T01:48:05.887Z,48.2
2024-02-08T01:49:07.899Z,48.2
2024-02-08T01:50:10.026Z,48.3
2024-02-08T01:51:11.848Z,48.3
2024-02-08T01:52:13.851Z,48.2
2024-02-08T01:53:15.875Z,48.1
2024-02-08T01:54:17.852Z,48.2
2024-02-08T01:55:19.858Z,48.3
2024-02-08T01:57:23.848Z,48
2024-02-08T01:58:26.023Z,47.7
2024-02-08T01:59:27.860Z,47.6
2024-02-08T02:00:31.119Z,47.3
2024-02-08T02:01:31.881Z,47.7
2024-02-08T02:02:33.864Z,47.3
2024-02-08T02:04:37.865Z,47.1
2024-02-08T02:05:39.855Z,47.1
2024-02-08T02:06:41.899Z,46.9
2024-02-08T02:07:43.881Z,46.8
2024-02-08T02:08:45.859Z,46.6
2024-02-08T02:09:47.911Z,46.5
2024-02-08T02:10:49.938Z,46.4
2024-02-08T02:11:53.118Z,46.2
2024-02-08T02:12:54.841Z,46
2024-02-08T02:13:57.012Z,45.6
2024-02-08T02:14:58.875Z,45.5
2024-02-08T02:16:00.922Z,45.2
2024-02-08T02:17:02.927Z,45.5
2024-02-08T02:18:05.105Z,45.3
2024-02-08T02:19:06.917Z,45.1
2024-02-08T02:20:09.024Z,45
2024-02-08T02:21:10.890Z,44.8
2024-02-08T02:22:12.878Z,44.6
2024-02-08T02:23:14.879Z,44.4
2024-02-08T02:24:16.888Z,44.2
2024-02-08T02:25:18.859Z,43.9
2024-02-08T02:26:20.879Z,43.8
2024-02-08T02:27:22.886Z,43.5
2024-02-08T02:28:24.906Z,43.4
2024-02-08T02:29:26.904Z,43.4
2024-02-08T02:30:28.889Z,43.5
2024-02-08T02:31:31.133Z,43.4
2024-02-08T02:32:32.942Z,43
2024-02-08T02:35:57.283Z,43.6
2024-02-08T02:36:58.879Z,43.7
2024-02-08T02:38:00.958Z,43.7
2024-02-08T02:39:02.860Z,43.7
2024-02-08T02:40:04.881Z,43.4
2024-02-08T02:41:07.017Z,43.7
2024-02-08T02:42:08.914Z,43.8
2024-02-08T02:43:11.103Z,43.8
2024-02-08T02:44:12.873Z,43.6
2024-02-08T02:45:14.864Z,43.6
2024-02-08T02:46:16.929Z,43.6
2024-02-08T02:47:18.970Z,43.5
2024-02-08T02:48:20.954Z,43.4
2024-02-08T02:49:22.873Z,43.4
2024-02-08T02:50:25.028Z,43.4
2024-02-08T02:51:26.945Z,43.3
2024-02-08T02:52:28.876Z,43.2
2024-02-08T02:53:31.167Z,43.2
2024-02-08T02:54:32.864Z,43.1
2024-02-08T02:55:34.918Z,42.6
2024-02-08T02:56:36.924Z,43
2024-02-08T02:57:38.878Z,43.2
2024-02-08T02:58:40.881Z,43
2024-02-08T02:59:42.886Z,42.8
2024-02-08T03:00:44.921Z,42.9
2024-02-08T03:01:46.932Z,42.8
2024-02-08T03:02:48.883Z,42.7
2024-02-08T03:03:50.935Z,42.8
2024-02-08T03:04:54.293Z,42.5
2024-02-08T03:05:55.873Z,42.5
2024-02-08T03:06:58.051Z,42.5
2024-02-08T03:07:59.935Z,42.7
2024-02-08T03:09:01.885Z,42.8
2024-02-08T03:10:03.892Z,42.9
2024-02-08T03:11:05.887Z,42.9
2024-02-08T03:12:08.888Z,42.8
2024-02-08T03:13:10.890Z,43.1
2024-02-08T03:14:13.343Z,43
2024-02-08T03:15:15.133Z,42.9
2024-02-08T03:16:16.914Z,42.8
2024-02-08T03:17:18.946Z,43
2024-02-08T03:18:20.875Z,43.1
2024-02-08T03:19:23.030Z,42.9
2024-02-08T03:20:25.218Z,42.8
2024-02-08T03:21:26.921Z,42.6
2024-02-08T03:22:28.930Z,42.6
2024-02-08T03:23:31.224Z,42.5
2024-02-08T03:24:34.105Z,42.1
2024-02-08T03:25:35.926Z,41.9
2024-02-08T03:26:37.900Z,42.5
2024-02-08T03:27:39.885Z,42.6
2024-02-08T03:28:41.963Z,42.8
2024-02-08T03:29:43.884Z,42.6
2024-02-08T03:30:45.936Z,42.6
2024-02-08T03:31:47.947Z,42.6
2024-02-08T03:32:50.955Z,42.5
2024-02-08T03:33:52.918Z,42.6
2024-02-08T03:34:55.127Z,42.3
2024-02-08T03:35:56.972Z,42.5
2024-02-08T03:36:58.918Z,42.5
2024-02-08T03:38:01.022Z,42.5
2024-02-08T03:39:02.902Z,42.5
2024-02-08T03:40:04.933Z,42.6
2024-02-08T03:41:07.129Z,42.5
2024-02-08T03:42:08.921Z,42.6
2024-02-08T03:43:10.918Z,42.5
2024-02-08T03:44:12.961Z,42.8
2024-02-08T03:45:14.917Z,42.8
2024-02-08T03:46:16.907Z,42.8
2024-02-08T03:47:18.998Z,42.6
2024-02-08T03:48:20.992Z,42.5
2024-02-08T03:49:22.890Z,42.3
2024-02-08T03:50:24.904Z,42.1
2024-02-08T03:51:26.900Z,42
2024-02-08T03:52:28.926Z,41.9
2024-02-08T03:53:31.248Z,42.1
2024-02-08T03:54:32.916Z,42.3
2024-02-08T03:55:34.951Z,42.5
2024-02-08T03:56:36.983Z,42.5
2024-02-08T03:57:38.915Z,42.4
2024-02-08T03:58:40.943Z,42.7
2024-02-08T03:59:43.158Z,42.7
2024-02-08T04:00:44.904Z,42.8
2024-02-08T04:01:46.954Z,43
2024-02-08T04:02:48.903Z,43.7
2024-02-08T04:03:50.908Z,44.1
2024-02-08T04:04:53.051Z,44.3
2024-02-08T04:05:54.982Z,44
2024-02-08T04:06:56.988Z,44.9
2024-02-08T04:07:59.029Z,45.1
2024-02-08T04:09:00.987Z,44.6
2024-02-08T04:10:02.932Z,44.9
2024-02-08T04:11:04.955Z,45
2024-02-08T04:12:06.922Z,45.4
2024-02-08T04:13:08.905Z,45.4
2024-02-08T04:14:10.980Z,45.4
2024-02-08T04:15:12.942Z,45.2
2024-02-08T04:16:14.929Z,45.3
2024-02-08T04:17:16.977Z,45.1
2024-02-08T04:18:18.955Z,45.1
2024-02-08T04:19:21.043Z,45.3
2024-02-08T04:20:22.900Z,45.8
2024-02-08T04:21:24.939Z,45.6
2024-02-08T04:22:26.929Z,45.5
2024-02-08T04:23:30.774Z,45.5
2024-02-08T04:24:31.275Z,45.6
2024-02-08T04:25:32.948Z,45.2
2024-02-08T04:26:34.918Z,45
2024-02-08T04:27:36.972Z,45.1
2024-02-08T04:28:38.988Z,44.9
2024-02-08T04:29:40.942Z,44.8
2024-02-08T04:30:42.929Z,45
2024-02-08T04:31:44.965Z,45
2024-02-08T04:32:47.095Z,45
2024-02-08T04:33:49.161Z,45.2
2024-02-08T04:34:50.993Z,45.3
2024-02-08T04:35:52.912Z,45.2
2024-02-08T04:36:54.956Z,45
2024-02-08T04:37:56.992Z,44.9
2024-02-08T04:38:58.936Z,45
2024-02-08T04:40:00.946Z,45
2024-02-08T04:41:03.022Z,45.1
2024-02-08T04:42:04.932Z,45
2024-02-08T04:43:06.931Z,45
2024-02-08T04:44:09.121Z,45.1
2024-02-08T04:45:10.952Z,45.1
2024-02-08T04:46:13.954Z,45
2024-02-08T04:47:15.994Z,44.8
2024-02-08T04:48:18.088Z,44.8
2024-02-08T04:49:19.919Z,44.8
2024-02-08T04:50:21.964Z,44.9
2024-02-08T04:51:23.935Z,45.1
2024-02-08T04:52:25.984Z,45.1
2024-02-08T04:53:27.951Z,45
2024-02-08T04:54:29.930Z,45
2024-02-08T04:55:31.982Z,45.1
2024-02-08T04:56:33.960Z,45.1
2024-02-08T04:57:35.955Z,45.1
2024-02-08T04:59:40.056Z,45.1
2024-02-08T05:00:41.934Z,45
2024-02-08T05:01:43.926Z,45.1
2024-02-08T05:02:45.951Z,45.1
2024-02-08T05:03:47.951Z,45.2
2024-02-08T05:04:50.085Z,45.2
2024-02-08T05:05:52.030Z,44.9
2024-02-08T05:06:54.089Z,44.7
2024-02-08T05:07:55.991Z,44
2024-02-08T05:08:57.935Z,44.4
2024-02-08T05:10:00.004Z,44.1
2024-02-08T05:11:01.995Z,44
2024-02-08T05:12:03.938Z,44
2024-02-08T05:13:05.968Z,44.1
2024-02-08T05:14:07.936Z,44.3
2024-02-08T05:15:09.938Z,44.5
2024-02-08T05:16:11.977Z,44.7
2024-02-08T05:17:13.999Z,44.7
2024-02-08T05:18:16.023Z,45
2024-02-08T05:19:18.050Z,45
2024-02-08T05:20:19.964Z,45.2
2024-02-08T05:21:21.960Z,44.9
2024-02-08T05:22:23.973Z,45.3
2024-02-08T05:23:25.941Z,45.2
2024-02-08T05:24:27.944Z,45.4
2024-02-08T05:25:29.992Z,45.3
2024-02-08T05:26:31.957Z,45
2024-02-08T05:27:33.966Z,44.8
2024-02-08T05:28:35.948Z,44.8
2024-02-08T05:29:37.967Z,44.7
2024-02-08T05:30:40.004Z,44.6
2024-02-08T05:31:41.943Z,44.6
2024-02-08T05:32:43.984Z,44.5
2024-02-08T05:33:46.084Z,44.3
2024-02-08T05:34:47.974Z,44.3
2024-02-08T05:35:49.973Z,44.1
2024-02-08T05:36:51.972Z,44.1
2024-02-08T05:37:53.940Z,44.1
2024-02-08T05:38:55.951Z,44.1
2024-02-08T05:39:57.992Z,44.3
2024-02-08T05:41:01.690Z,44.2
2024-02-08T05:42:01.971Z,44.1
2024-02-08T05:43:04.018Z,44.1
2024-02-08T05:44:08.954Z,44.1
2024-02-08T05:45:10.952Z,44.1
2024-02-08T05:46:12.950Z,44
2024-02-08T05:47:14.962Z,44
2024-02-08T05:48:17.085Z,44.1
2024-02-08T05:49:18.969Z,44.2
2024-02-08T05:50:20.988Z,44.2
2024-02-08T05:51:22.953Z,44.3
2024-02-08T05:52:24.981Z,44.3
2024-02-08T05:53:26.934Z,44.3
2024-02-08T05:54:28.961Z,44
2024-02-08T05:55:31.356Z,44.4
2024-02-08T05:56:32.944Z,44.8
2024-02-08T05:57:34.973Z,45
2024-02-08T05:58:37.005Z,44.9
2024-02-08T05:59:39.315Z,44.9
2024-02-08T06:00:40.993Z,45
2024-02-08T06:01:43.067Z,44.7
2024-02-08T06:02:44.989Z,44.4
2024-02-08T06:03:47.047Z,44.3
2024-02-08T06:04:49.033Z,44.1
2024-02-08T06:05:51.068Z,44
2024-02-08T06:06:53.115Z,43.8
2024-02-08T06:07:55.012Z,44
2024-02-08T06:08:57.021Z,44.1
2024-02-08T06:09:59.012Z,44.4
2024-02-08T06:11:01.040Z,44.4
2024-02-08T06:12:02.962Z,44.4
2024-02-08T06:13:04.973Z,44.6
2024-02-08T06:14:06.996Z,44.7
2024-02-08T06:15:08.965Z,44.5
2024-02-08T06:16:10.997Z,44.5
2024-02-08T06:17:13.013Z,44.5
2024-02-08T06:18:15.030Z,44.3
2024-02-08T06:19:17.266Z,44.4
2024-02-08T06:20:21.768Z,44.3
2024-02-08T06:21:31.095Z,44.7
2024-02-08T06:22:37.904Z,44.6
2024-02-08T06:23:42.385Z,44.5
2024-02-08T06:24:49.683Z,44.5
2024-02-08T06:25:48.991Z,44.7
2024-02-08T06:26:52.150Z,44.8
2024-02-08T06:27:55.010Z,44.8
2024-02-08T06:28:59.937Z,45.1
2024-02-08T06:30:03.870Z,45.1
2024-02-08T06:31:09.014Z,45.1
2024-02-08T06:32:11.045Z,45.3
2024-02-08T06:33:13.288Z,45.4
2024-02-08T06:34:16.069Z,45.4
2024-02-08T06:35:18.233Z,44.9
2024-02-08T06:36:21.004Z,45.4
2024-02-08T06:37:26.049Z,45.2
2024-02-08T06:38:29.042Z,45.1
2024-02-08T06:39:34.027Z,44.9
2024-02-08T06:41:37.024Z,45.6
2024-02-08T06:42:38.984Z,45.6
2024-02-08T06:43:40.990Z,45.5
2024-02-08T06:44:42.983Z,45.6
2024-02-08T06:45:45.019Z,45.6
2024-02-08T06:46:47.012Z,45.6
2024-02-08T06:48:51.170Z,45.4
2024-02-08T06:49:53.149Z,45.5
2024-02-08T06:50:54.992Z,45.5
2024-02-08T06:51:57.050Z,45.6
2024-02-08T06:52:58.982Z,45
2024-02-08T06:54:01.045Z,45.5
2024-02-08T06:55:02.997Z,45.2
2024-02-08T06:56:05.102Z,45.5
2024-02-08T06:57:07.013Z,45.3
2024-02-08T06:58:09.042Z,45.4
2024-02-08T06:59:11.033Z,45.4
2024-02-08T07:00:13.009Z,45
2024-02-08T07:01:15.166Z,45.2
2024-02-08T07:02:17.038Z,45.5
2024-02-08T07:03:19.018Z,45.5
2024-02-08T07:04:21.202Z,45.6
2024-02-08T07:05:22.995Z,45.8
2024-02-08T07:06:25.011Z,46
2024-02-08T07:07:27.128Z,46
2024-02-08T07:08:29.007Z,45.9
2024-02-08T07:09:31.395Z,46.2
2024-02-08T07:11:35.101Z,46.2
2024-02-08T07:12:37.013Z,45.8
2024-02-08T07:13:38.999Z,45.6
2024-02-08T07:14:40.984Z,45.7
2024-02-08T07:15:43.065Z,46.1
2024-02-08T07:16:45.000Z,46.1
2024-02-08T07:18:52.248Z,46
2024-02-08T07:19:51.083Z,45.9
2024-02-08T07:20:53.023Z,46
2024-02-08T07:21:55.561Z,46
2024-02-08T07:22:57.003Z,45.6
2024-02-08T07:23:58.989Z,45.8
2024-02-08T07:25:02.909Z,46
2024-02-08T07:26:03.045Z,46.1
2024-02-08T07:27:04.996Z,46.2
2024-02-08T07:28:08.068Z,45.7
2024-02-08T07:29:10.012Z,45.8
2024-02-08T07:30:12.006Z,45.6
2024-02-08T07:31:15.065Z,45.4
2024-02-08T07:33:19.209Z,45.5
2024-02-08T07:34:21.396Z,44.5
2024-02-08T07:35:23.073Z,43.9
2024-02-08T07:36:25.610Z,43.7
2024-02-08T07:37:27.359Z,43.7
2024-02-08T07:38:29.016Z,43.6
2024-02-08T07:39:31.526Z,43.2
2024-02-08T07:40:33.190Z,43.1
2024-02-08T07:41:35.033Z,43.4
2024-02-08T07:42:37.059Z,43.6
2024-02-08T07:43:39.124Z,43.8
2024-02-08T07:44:41.061Z,43.4
2024-02-08T07:45:43.001Z,43.8
2024-02-08T07:46:45.027Z,43.7
2024-02-08T07:48:49.097Z,43
2024-02-08T07:49:51.151Z,41.4
2024-02-08T07:50:55.040Z,41.4
2024-02-08T07:51:57.187Z,41.2
2024-02-08T07:52:59.041Z,41.3
2024-02-08T07:54:01.052Z,41.1
2024-02-08T07:55:03.075Z,40.9
2024-02-08T07:56:05.012Z,41
2024-02-08T07:57:07.027Z,40.1
2024-02-08T07:58:09.268Z,40.5
2024-02-08T07:59:11.043Z,39.4
2024-02-08T08:00:13.008Z,39.3
2024-02-08T08:01:15.159Z,39.2
2024-02-08T08:03:19.018Z,38.1
2024-02-08T08:04:21.099Z,38.5
2024-02-08T08:05:23.164Z,37.7
2024-02-08T08:06:25.083Z,37.5
2024-02-08T08:07:27.195Z,37.6
2024-02-08T08:08:29.032Z,37.5
2024-02-08T08:10:33.099Z,38.2
2024-02-08T08:11:35.052Z,37.5
2024-02-08T08:12:38.616Z,37.2
2024-02-08T08:13:40.128Z,37.1
2024-02-08T08:14:42.031Z,37.1
2024-02-08T08:15:44.111Z,37.1
2024-02-08T08:17:48.048Z,37.8
2024-02-08T08:18:50.111Z,37.5
2024-02-08T08:19:52.128Z,36.8
2024-02-08T08:20:54.033Z,36.2
2024-02-08T08:21:56.178Z,36.6
2024-02-08T08:22:58.054Z,36.5
2024-02-08T08:25:02.082Z,36.6
2024-02-08T08:26:04.037Z,36
2024-02-08T08:27:06.020Z,36.4
2024-02-08T08:28:08.050Z,36.4
2024-02-08T08:29:10.053Z,36.7
2024-02-08T08:30:12.047Z,37
2024-02-08T08:31:14.122Z,37.1
2024-02-08T08:32:16.049Z,35.6
2024-02-08T08:33:18.436Z,35.6
2024-02-08T08:34:20.257Z,35.6
2024-02-08T08:35:22.092Z,35.4
2024-02-08T08:36:24.027Z,35.2
2024-02-08T08:37:26.095Z,35
2024-02-08T08:38:29.072Z,35
2024-02-08T08:39:31.447Z,35.1
2024-02-08T08:40:33.181Z,35.1
2024-02-08T08:41:35.171Z,34.6
2024-02-08T08:42:37.061Z,34.6
2024-02-08T08:43:39.146Z,34.8
2024-02-08T08:44:41.055Z,35.1
2024-02-08T08:45:43.322Z,34.8
2024-02-08T08:47:48.108Z,35
2024-02-08T08:48:50.264Z,35.2
2024-02-08T08:49:52.561Z,34.3
2024-02-08T08:50:54.074Z,33.8
2024-02-08T08:51:56.149Z,33.2
2024-02-08T08:52:58.046Z,32.9
2024-02-08T08:55:02.064Z,33
2024-02-08T08:56:04.063Z,33.3
2024-02-08T08:57:06.044Z,33.2
2024-02-08T08:58:08.105Z,32.9
2024-02-08T08:59:10.249Z,32.7
2024-02-08T09:00:12.061Z,33.5
2024-02-08T09:02:16.254Z,34.1
2024-02-08T09:03:18.104Z,33.3
2024-02-08T09:04:20.124Z,33.4
2024-02-08T09:05:22.106Z,34.1
2024-02-08T09:06:24.145Z,33.8
2024-02-08T09:07:28.045Z,32.5
2024-02-08T09:09:30.102Z,32.4
2024-02-08T09:10:32.083Z,32.2
2024-02-08T09:11:34.054Z,32.1
2024-02-08T09:12:37.098Z,30.9
2024-02-08T09:13:39.282Z,30.7
2024-02-08T09:14:41.071Z,29.9
2024-02-08T09:16:45.092Z,30.4
2024-02-08T09:17:47.110Z,30.9
2024-02-08T09:18:49.207Z,31.1
2024-02-08T09:19:51.142Z,30.8
2024-02-08T09:20:53.057Z,30.2
2024-02-08T09:21:55.084Z,30.3
2024-02-08T09:22:57.092Z,30.6
2024-02-08T09:23:59.052Z,29.8
2024-02-08T09:25:01.189Z,30.1
2024-02-08T09:26:03.099Z,30.6
2024-02-08T09:27:05.154Z,31.3
2024-02-08T09:28:07.142Z,31.9
2024-02-08T09:29:09.079Z,32.3
2024-02-08T09:30:11.104Z,32.4
2024-02-08T09:32:15.088Z,32.5
2024-02-08T09:33:17.141Z,32.9
2024-02-08T09:34:19.134Z,33.6
2024-02-08T09:35:21.329Z,33.6
2024-02-08T09:36:23.064Z,33.8
2024-02-08T09:37:25.121Z,33.2
2024-02-08T09:39:30.073Z,33.7
2024-02-08T09:40:32.131Z,34
2024-02-08T09:41:34.076Z,34.5
2024-02-08T09:42:36.089Z,34.7
2024-02-08T09:43:38.103Z,35
2024-02-08T09:44:40.056Z,34.5
2024-02-08T09:46:44.242Z,33.8
2024-02-08T09:47:46.089Z,33
2024-02-08T09:48:48.212Z,33.1
2024-02-08T09:49:50.137Z,33.6
2024-02-08T09:50:52.133Z,32.4
2024-02-08T09:51:56.528Z,32.7
2024-02-08T09:53:59.082Z,32.2
2024-02-08T09:55:01.187Z,32.3
2024-02-08T09:56:03.084Z,32.2
2024-02-08T09:57:05.316Z,31.6
2024-02-08T09:58:07.148Z,31.3
2024-02-08T09:59:10.416Z,31.5
2024-02-08T10:01:13.182Z,32
2024-02-08T10:02:15.149Z,32.9
2024-02-08T10:03:17.128Z,33.5
2024-02-08T10:04:19.435Z,33.7
2024-02-08T10:05:21.399Z,34.4
2024-02-08T10:06:24.240Z,34.1
2024-02-08T10:08:28.071Z,34.7
2024-02-08T10:09:30.182Z,34.8
2024-02-08T10:10:32.202Z,34.9
2024-02-08T10:11:34.162Z,34.9
2024-02-08T10:12:36.146Z,34.5
2024-02-08T10:13:38.160Z,33.8
2024-02-08T10:14:40.144Z,33.1
2024-02-08T10:15:42.199Z,32.3
2024-02-08T10:16:44.429Z,31.6
2024-02-08T10:17:46.122Z,31.4
2024-02-08T10:18:48.161Z,31.3
2024-02-08T10:19:50.225Z,31.6
2024-02-08T10:20:52.105Z,30.7
2024-02-08T10:21:54.118Z,31.4
2024-02-08T10:23:58.080Z,30.6
2024-02-08T10:25:00.195Z,30.7
2024-02-08T10:26:02.111Z,30.3
2024-02-08T10:27:04.084Z,30.4
2024-02-08T10:28:06.154Z,30.2
2024-02-08T10:29:08.109Z,30.4
2024-02-08T10:31:14.225Z,30.8
2024-02-08T10:32:16.197Z,31.8
2024-02-08T10:33:18.142Z,32.1
2024-02-08T10:34:20.368Z,32.9
2024-02-08T10:35:22.404Z,33.5
2024-02-08T10:36:26.097Z,33.8
2024-02-08T10:38:28.190Z,33.7
2024-02-08T10:39:30.111Z,33.6
2024-02-08T10:40:32.186Z,34.3
2024-02-08T10:41:34.110Z,33.6
2024-02-08T10:42:36.163Z,33.3
2024-02-08T10:43:38.808Z,33
2024-02-08T10:45:42.143Z,32.6
2024-02-08T10:46:44.189Z,32.3
2024-02-08T10:47:47.858Z,32
2024-02-08T10:48:48.265Z,32.5
2024-02-08T10:49:50.187Z,32.5
2024-02-08T10:50:52.127Z,32.6
2024-02-08T10:51:54.133Z,32.2
2024-02-08T10:52:56.145Z,32.2
2024-02-08T10:53:58.176Z,31.3
2024-02-08T10:55:00.188Z,31.4
2024-02-08T10:56:02.125Z,31.6
2024-02-08T10:57:04.096Z,31.7
2024-02-08T10:58:06.120Z,31.6
2024-02-08T10:59:08.131Z,31.9
2024-02-08T11:00:10.178Z,32.5
2024-02-08T11:01:12.220Z,32.5
2024-02-08T11:02:14.161Z,32.1
2024-02-08T11:03:16.605Z,32.4
2024-02-08T11:04:19.056Z,32.8
2024-02-08T11:05:20.657Z,33.8
2024-02-08T11:06:22.142Z,33.4
2024-02-08T11:08:26.513Z,33.7
2024-02-08T11:09:28.123Z,32.7
2024-02-08T11:10:30.277Z,33.2
2024-02-08T11:11:32.131Z,34.3
2024-02-08T11:12:34.113Z,34.8
2024-02-08T11:13:36.195Z,35.4
2024-02-08T11:15:40.508Z,35.8
2024-02-08T11:16:42.293Z,35
2024-02-08T11:17:44.192Z,34.5
2024-02-08T11:18:49.277Z,33.7
2024-02-08T11:19:52.344Z,33.5
2024-02-08T11:20:54.139Z,33.3
2024-02-08T11:21:56.164Z,33.7
2024-02-08T11:22:58.133Z,33.6
2024-02-08T11:24:00.131Z,33.8
2024-02-08T11:25:02.215Z,34.2
2024-02-08T11:26:04.127Z,34.9
2024-02-08T11:27:06.139Z,34.6
2024-02-08T11:28:14.293Z,34.7
2024-02-08T11:29:10.155Z,34.2
2024-02-08T11:30:12.157Z,34.7
2024-02-08T11:31:14.208Z,34.8
2024-02-08T11:32:16.172Z,34.9
2024-02-08T11:33:18.116Z,35
2024-02-08T11:34:22.595Z,35
2024-02-08T11:35:25.219Z,34.7
2024-02-08T11:36:27.155Z,34.5
2024-02-08T11:37:39.648Z,35.1
2024-02-08T11:38:41.111Z,34.5
2024-02-08T11:39:43.145Z,34.3
2024-02-08T11:41:47.147Z,34.5
2024-02-08T11:42:49.173Z,34.6
2024-02-08T11:43:51.176Z,34.2
2024-02-08T11:44:53.141Z,34.6
2024-02-08T11:45:55.158Z,34.2
2024-02-08T11:46:57.166Z,33.6
2024-02-08T11:49:01.247Z,34.2
2024-02-08T11:50:03.792Z,34.1
2024-02-08T11:51:05.180Z,34
2024-02-08T11:52:07.198Z,34
2024-02-08T11:53:09.155Z,34
2024-02-08T11:54:11.166Z,34.1
2024-02-08T11:55:13.144Z,34.1
2024-02-08T11:56:15.122Z,34.4
2024-02-08T11:57:18.825Z,33.4
2024-02-08T11:58:19.191Z,33.8
2024-02-08T11:59:21.153Z,33.9
2024-02-08T12:00:23.144Z,34.2
2024-02-08T12:01:25.254Z,34.3
2024-02-08T12:02:27.129Z,34.4
2024-02-08T12:03:29.175Z,34.4
2024-02-08T12:04:31.822Z,34
2024-02-08T12:05:33.360Z,34
2024-02-08T12:06:35.179Z,34.1
2024-02-08T12:07:37.359Z,34.1
2024-02-08T12:08:43.088Z,34.3
2024-02-08T12:09:41.160Z,34.5
2024-02-08T12:11:45.209Z,35
2024-02-08T12:12:47.353Z,34.4
2024-02-08T12:13:49.142Z,34.9
2024-02-08T12:14:51.146Z,35.2
2024-02-08T12:15:53.176Z,34.4
2024-02-08T12:16:55.154Z,35.1
2024-02-08T12:18:59.232Z,35
2024-02-08T12:20:01.862Z,34.7
2024-02-08T12:21:03.632Z,35.7
2024-02-08T12:22:05.677Z,35.5
2024-02-08T12:23:07.192Z,35.8
2024-02-08T12:24:09.151Z,36.5
2024-02-08T12:25:11.168Z,36.9
2024-02-08T12:26:13.154Z,36.7
2024-02-08T12:27:16.015Z,35.9
2024-02-08T12:28:17.282Z,36.2
2024-02-08T12:29:19.197Z,36.1
2024-02-08T12:30:21.163Z,36.1
2024-02-08T12:31:23.198Z,35.8
2024-02-08T12:32:26.318Z,36.1
2024-02-08T12:33:27.290Z,35.3
2024-02-08T12:34:29.302Z,34.5
2024-02-08T12:35:31.740Z,34.1
2024-02-08T12:36:33.166Z,33.8
2024-02-08T12:37:35.208Z,34
2024-02-08T12:38:38.870Z,34.3
2024-02-08T12:39:39.158Z,34.1
2024-02-08T12:41:43.166Z,33.6
2024-02-08T12:42:45.152Z,32.9
2024-02-08T12:43:47.294Z,33
2024-02-08T12:44:49.213Z,33.4
2024-02-08T12:45:51.201Z,33.6
2024-02-08T12:46:53.161Z,33.8
2024-02-08T12:48:57.368Z,33.9
2024-02-08T12:50:05.286Z,33.8
2024-02-08T12:51:06.199Z,33.7
2024-02-08T12:52:08.205Z,33.5
2024-02-08T12:53:10.158Z,33.4
2024-02-08T12:55:14.200Z,33.5
2024-02-08T12:56:17.180Z,33.7
2024-02-08T12:57:18.173Z,34.1
2024-02-08T12:58:20.296Z,34.4
2024-02-08T12:59:22.194Z,34.2
2024-02-08T13:00:24.222Z,34.3
2024-02-08T13:01:26.304Z,34.2
2024-02-08T13:02:28.186Z,34
2024-02-08T13:03:30.173Z,34.3
2024-02-08T13:04:32.267Z,34.4
2024-02-08T13:05:34.357Z,34.7
2024-02-08T13:06:36.291Z,34.9
2024-02-08T13:07:38.853Z,35.6
2024-02-08T13:08:40.248Z,36
2024-02-08T13:09:42.184Z,36.3
2024-02-08T13:10:44.320Z,36.2
2024-02-08T13:11:46.173Z,36
2024-02-08T13:12:48.203Z,34.8
2024-02-08T13:13:50.213Z,34.4
2024-02-08T13:14:52.184Z,34
2024-02-08T13:15:54.223Z,34.4
2024-02-08T13:17:58.404Z,34.7
2024-02-08T13:19:00.236Z,34.5
2024-02-08T13:20:02.281Z,33.9
2024-02-08T13:21:05.472Z,34
2024-02-08T13:22:07.244Z,33.8
2024-02-08T13:24:14.408Z,33.9
2024-02-08T13:25:16.554Z,33.7
2024-02-08T13:26:25.717Z,33.7
2024-02-08T13:27:23.250Z,33.1
2024-02-08T13:28:26.385Z,33.5
2024-02-08T13:30:35.209Z,32.3
2024-02-08T13:31:39.028Z,32.6
2024-02-08T13:32:44.435Z,32.2
2024-02-08T13:33:48.335Z,31.9
2024-02-08T13:36:03.251Z,30.4
2024-02-08T13:37:05.269Z,30.1
2024-02-08T13:38:10.514Z,30
2024-02-08T13:39:14.259Z,29.8
2024-02-08T13:40:18.693Z,29.8
2024-02-08T13:41:24.405Z,29.8
2024-02-08T13:42:35.259Z,29.9
2024-02-08T13:43:33.253Z,29.8
2024-02-08T13:44:41.425Z,29.9
2024-02-08T13:45:51.383Z,30.3
2024-02-08T13:46:51.806Z,31
2024-02-08T13:49:02.061Z,31.3
2024-02-08T13:50:06.503Z,31.3
2024-02-08T13:51:09.458Z,31.5
2024-02-08T13:53:17.101Z,32.5
2024-02-08T13:54:19.179Z,32.7
2024-02-08T13:55:21.630Z,32.8
2024-02-08T13:56:28.411Z,32.9
2024-02-08T13:56:59.242Z,32.6
2024-02-08T13:57:31.497Z,32.8
2024-02-08T13:58:35.753Z,33
2024-02-08T13:59:38.436Z,32.9
2024-02-08T14:00:40.343Z,32.9
2024-02-08T14:01:44.473Z,32.9
2024-02-08T14:02:48.526Z,32.9
2024-02-08T14:03:53.948Z,33.1
2024-02-08T14:05:03.030Z,33.4
2024-02-08T14:06:11.110Z,33.5
2024-02-08T14:08:19.553Z,33.4
2024-02-08T14:09:21.220Z,33.4
2024-02-08T14:10:23.268Z,33.3
2024-02-08T14:11:25.227Z,33.1
2024-02-08T14:12:30.416Z,32.6
2024-02-08T14:13:33.295Z,32.8
2024-02-08T14:14:35.471Z,32.4
2024-02-08T14:15:38.433Z,32.2
2024-02-08T14:16:41.463Z,32.3
2024-02-08T14:17:45.589Z,32.3
2024-02-08T14:19:58.734Z,32.1
2024-02-08T14:21:04.173Z,32.1
2024-02-08T14:22:08.294Z,32.4
2024-02-08T14:24:13.312Z,32.5
2024-02-08T14:25:17.426Z,32.6
2024-02-08T14:26:19.452Z,32.2
2024-02-08T14:27:25.540Z,31.9
2024-02-08T14:28:29.563Z,32
2024-02-08T14:29:01.634Z,32
2024-02-08T14:29:33.704Z,31.5
2024-02-08T14:30:35.450Z,31.9
2024-02-08T14:31:38.683Z,31.9
2024-02-08T14:32:39.493Z,32.2
2024-02-08T14:33:41.455Z,32.4
2024-02-08T14:34:43.299Z,32.7
2024-02-08T14:35:52.667Z,33
2024-02-08T14:36:57.293Z,33.1
2024-02-08T14:37:59.290Z,33.1
2024-02-08T14:40:15.385Z,33.3
2024-02-08T14:41:17.215Z,33.5
2024-02-08T14:42:19.231Z,34.1
2024-02-08T14:43:23.224Z,34.4
2024-02-08T14:44:23.465Z,34.7
2024-02-08T14:45:31.253Z,34.9
2024-02-08T14:46:34.657Z,35.3
2024-02-08T14:47:37.864Z,35.3
2024-02-08T14:48:40.528Z,35.3
2024-02-08T14:49:42.842Z,35.5